createdAt,value
2022-09-14T00:00:18.716Z,99236.69
2022-09-14T00:03:24.077Z,99231.03
2022-09-14T00:06:13.118Z,99254.66
2022-09-14T00:09:00.957Z,99244.66
2022-09-14T00:11:48.127Z,99255.47
2022-09-14T00:14:33.885Z,99216.41
2022-09-14T00:17:19.649Z,99262.53
2022-09-14T00:20:05.568Z,99231.16
2022-09-14T00:22:51.499Z,99202.56
2022-09-14T00:25:36.858Z,99230.38
2022-09-14T00:28:22.796Z,99241.56
2022-09-14T00:31:09.046Z,99238.38
2022-09-14T00:33:54.707Z,99236.75
2022-09-14T00:36:43.353Z,99249.50
2022-09-14T00:39:29.137Z,99220.03
2022-09-14T00:42:16.609Z,99235.16
2022-09-14T00:45:16.022Z,99230.66
2022-09-14T00:48:01.928Z,99232.66
2022-09-14T00:50:47.714Z,99245.47
2022-09-14T00:53:33.519Z,99247.09
2022-09-14T00:56:19.582Z,99225.56
2022-09-14T00:59:16.799Z,99233.66
2022-09-14T01:02:03.262Z,99244.31
2022-09-14T01:04:49.013Z,99232.41
2022-09-14T01:07:50.682Z,99245.50
2022-09-14T01:10:43.844Z,99218.91
2022-09-14T01:13:44.888Z,99243.13
2022-09-14T01:16:36.353Z,99247.03
2022-09-14T01:19:42.974Z,99250.25
2022-09-14T01:23:06.517Z,99241.19
2022-09-14T01:26:29.432Z,99235.59
2022-09-14T01:29:29.903Z,99207.28
2022-09-14T01:32:21.382Z,99209.72
2022-09-14T01:35:15.969Z,99244.22
2022-09-14T01:38:14.390Z,99220.75
2022-09-14T01:41:03.257Z,99194.88
2022-09-14T01:43:56.487Z,99212.81
2022-09-14T01:46:48.502Z,99218.50
2022-09-14T01:49:43.965Z,99234.34
2022-09-14T01:52:54.932Z,99234.34
2022-09-14T01:56:03.746Z,99226.03
2022-09-14T01:58:58.016Z,99232.75
2022-09-14T02:01:52.911Z,99210.88
2022-09-14T02:04:46.408Z,99214.94
2022-09-14T02:07:33.069Z,99207.81
2022-09-14T02:10:18.462Z,99188.66
2022-09-14T02:13:04.299Z,99200.22
2022-09-14T02:15:50.038Z,99196.63
2022-09-14T02:18:35.766Z,99195.03
2022-09-14T02:21:31.295Z,99222.03
2022-09-14T02:24:17.354Z,99210.06
2022-09-14T02:27:03.665Z,99190.50
2022-09-14T02:29:49.786Z,99167.03
2022-09-14T02:32:58.485Z,99204.97
2022-09-14T02:35:54.503Z,99190.63
2022-09-14T02:38:51.541Z,99183.06
2022-09-14T02:42:15.464Z,99202.22
2022-09-14T02:45:28.001Z,99202.22
2022-09-14T02:48:21.833Z,99185.97
2022-09-14T02:51:18.351Z,99173.78
2022-09-14T02:54:19.162Z,99199.53
2022-09-14T02:57:05.348Z,99167.34
2022-09-14T02:59:54.223Z,99180.88
2022-09-14T03:02:39.670Z,99170.88
2022-09-14T03:05:25.685Z,99157.28
2022-09-14T03:08:11.757Z,99156.97
2022-09-14T03:10:57.635Z,99173.28
2022-09-14T03:13:44.207Z,99159.81
2022-09-14T03:16:29.935Z,99164.50
2022-09-14T03:19:15.603Z,99159.16
2022-09-14T03:22:02.192Z,99185.72
2022-09-14T03:24:47.610Z,99171.00
2022-09-14T03:27:33.382Z,99192.09
2022-09-14T03:30:19.394Z,99207.63
2022-09-14T03:33:05.476Z,99189.34
2022-09-14T03:35:51.232Z,99189.34
2022-09-14T03:38:36.847Z,99169.81
2022-09-14T03:41:23.565Z,99188.13
2022-09-14T03:44:10.393Z,99186.66
2022-09-14T03:46:56.288Z,99173.88
2022-09-14T03:49:42.364Z,99173.88
2022-09-14T03:52:28.452Z,99178.16
2022-09-14T03:55:14.605Z,99189.69
2022-09-14T03:58:00.481Z,99160.31
2022-09-14T04:00:46.468Z,99177.84
2022-09-14T04:03:32.101Z,99177.78
2022-09-14T04:06:19.210Z,99180.19
2022-09-14T04:09:05.688Z,99165.50
2022-09-14T04:11:51.713Z,99178.16
2022-09-14T04:14:37.721Z,99151.50
2022-09-14T04:17:25.341Z,99173.34
2022-09-14T04:20:11.381Z,99167.38
2022-09-14T04:22:57.198Z,99153.41
2022-09-14T04:25:42.704Z,99185.72
2022-09-14T04:28:29.127Z,99194.81
2022-09-14T04:31:15.519Z,99198.78
2022-09-14T04:34:01.479Z,99168.16
2022-09-14T04:36:47.257Z,99159.34
2022-09-14T04:39:32.959Z,99173.66
2022-09-14T04:42:19.408Z,99178.03
2022-09-14T04:45:06.156Z,99195.56
2022-09-14T04:47:51.979Z,99155.47
2022-09-14T04:50:37.646Z,99169.78
2022-09-14T04:53:23.402Z,99157.06
2022-09-14T04:56:11.095Z,99196.03
2022-09-14T04:58:58.952Z,99184.88
2022-09-14T05:01:47.518Z,99188.50
2022-09-14T05:04:33.697Z,99184.88
2022-09-14T05:07:19.657Z,99156.28
2022-09-14T05:10:06.198Z,99160.19
2022-09-14T05:12:51.913Z,99191.59
2022-09-14T05:15:37.460Z,99178.78
2022-09-14T05:18:23.137Z,99193.59
2022-09-14T05:21:10.643Z,99179.69
2022-09-14T05:24:01.582Z,99207.44
2022-09-14T05:26:47.416Z,99213.69
2022-09-14T05:29:33.469Z,99207.38
2022-09-14T05:32:19.017Z,99178.78
2022-09-14T05:35:05.439Z,99219.00
2022-09-14T05:37:54.105Z,99204.34
2022-09-14T05:40:40.348Z,99171.66
2022-09-14T05:43:29.496Z,99207.94
2022-09-14T05:46:37.487Z,99211.47
2022-09-14T05:49:28.161Z,99198.75
2022-09-14T05:52:17.320Z,99184.88
2022-09-14T05:55:03.736Z,99176.56
2022-09-14T05:57:50.445Z,99210.66
2022-09-14T06:00:36.007Z,99201.19
2022-09-14T06:03:22.021Z,99177.72
2022-09-14T06:06:09.240Z,99190.91
2022-09-14T06:08:56.773Z,99214.44
2022-09-14T06:11:43.028Z,99187.09
2022-09-14T06:14:33.708Z,99212.19
2022-09-14T06:17:19.289Z,99189.19
2022-09-14T06:20:07.757Z,99194.38
2022-09-14T06:22:53.172Z,99173.28
2022-09-14T06:25:39.111Z,99186.84
2022-09-14T06:28:25.674Z,99208.31
2022-09-14T06:31:14.076Z,99197.16
2022-09-14T06:33:59.743Z,99192.75
2022-09-14T06:36:45.657Z,99194.03
2022-09-14T06:39:31.789Z,99187.31
2022-09-14T06:42:18.180Z,99195.25
2022-09-14T06:45:07.439Z,99186.53
2022-09-14T06:47:53.121Z,99199.25
2022-09-14T06:50:38.645Z,99203.63
2022-09-14T06:53:25.158Z,99204.03
2022-09-14T06:56:11.329Z,99216.34
2022-09-14T06:58:58.502Z,99193.22
2022-09-14T07:01:50.198Z,99226.22
2022-09-14T07:04:36.984Z,99185.31
2022-09-14T07:07:22.573Z,99189.75
2022-09-14T07:10:08.707Z,99204.47
2022-09-14T07:12:55.011Z,99189.75
2022-09-14T07:15:40.522Z,99196.88
2022-09-14T07:18:33.188Z,99224.78
2022-09-14T07:21:21.287Z,99210.88
2022-09-14T07:24:07.403Z,99234.00
2022-09-14T07:26:53.420Z,99190.34
2022-09-14T07:29:39.105Z,99174.09
2022-09-14T07:32:41.543Z,99217.19
2022-09-14T07:35:33.004Z,99225.09
2022-09-14T07:38:58.308Z,99220.69
2022-09-14T07:41:44.209Z,99221.94
2022-09-14T07:44:30.149Z,99175.84
2022-09-14T07:47:16.084Z,99186.22
2022-09-14T07:50:01.970Z,99211.28
2022-09-14T07:52:54.920Z,99232.00
2022-09-14T07:55:41.318Z,99241.47
2022-09-14T07:58:40.449Z,99233.13
2022-09-14T08:01:30.236Z,99234.28
2022-09-14T08:04:15.963Z,99226.78
2022-09-14T08:07:04.409Z,99205.75
2022-09-14T08:09:50.517Z,99195.00
2022-09-14T08:12:36.956Z,99228.03
2022-09-14T08:15:28.254Z,99226.38
2022-09-14T08:18:15.056Z,99223.50
2022-09-14T08:21:12.644Z,99222.66
2022-09-14T08:23:59.235Z,99234.56
2022-09-14T08:26:46.849Z,99204.75
2022-09-14T08:29:33.057Z,99205.50
2022-09-14T08:32:18.839Z,99197.22
2022-09-14T08:35:04.905Z,99216.34
2022-09-14T08:37:51.078Z,99202.03
2022-09-14T08:40:44.775Z,99222.38
2022-09-14T08:43:30.382Z,99231.16
2022-09-14T08:46:34.532Z,99216.50
2022-09-14T08:49:55.331Z,99218.13
2022-09-14T08:52:56.193Z,99214.94
2022-09-14T08:55:47.989Z,99191.09
2022-09-14T08:58:48.570Z,99216.59
2022-09-14T09:01:58.043Z,99189.56
2022-09-14T09:05:07.696Z,99226.16
2022-09-14T09:08:04.241Z,99187.22
2022-09-14T09:10:52.995Z,99201.13
2022-09-14T09:13:40.186Z,99184.84
2022-09-14T09:16:27.745Z,99193.97
2022-09-14T09:19:18.217Z,99216.63
2022-09-14T09:22:05.940Z,99196.75
2022-09-14T09:24:54.155Z,99209.88
2022-09-14T09:27:40.141Z,99174.09
2022-09-14T09:30:26.348Z,99191.09
2022-09-14T09:33:23.338Z,99214.59
2022-09-14T09:36:48.135Z,99196.72
2022-09-14T09:39:35.068Z,99195.09
2022-09-14T09:42:23.159Z,99207.06
2022-09-14T09:45:10.216Z,99167.31
2022-09-14T09:47:55.796Z,99190.38
2022-09-14T09:50:56.722Z,99200.75
2022-09-14T09:53:50.132Z,99196.41
2022-09-14T09:56:55.921Z,99188.84
2022-09-14T09:59:44.330Z,99205.16
2022-09-14T10:02:31.355Z,99186.88
2022-09-14T10:05:17.034Z,99186.88
2022-09-14T10:08:09.342Z,99192.03
2022-09-14T10:10:57.055Z,99173.38
2022-09-14T10:13:47.079Z,99180.91
2022-09-14T10:16:39.073Z,99174.56
2022-09-14T10:19:28.078Z,99162.63
2022-09-14T10:22:31.978Z,99213.06
2022-09-14T10:25:17.903Z,99205.53
2022-09-14T10:28:03.896Z,99189.66
2022-09-14T10:30:56.217Z,99182.09
2022-09-14T10:33:42.673Z,99179.31
2022-09-14T10:36:34.257Z,99190.84
2022-09-14T10:39:26.262Z,99202.38
2022-09-14T10:42:25.797Z,99169.38
2022-09-14T10:45:31.689Z,99179.31
2022-09-14T10:48:23.876Z,99187.66
2022-09-14T10:51:23.492Z,99183.69
2022-09-14T10:54:22.649Z,99166.59
2022-09-14T10:57:46.190Z,99173.72
2022-09-14T11:00:38.300Z,99173.72
2022-09-14T11:03:34.537Z,99150.72
2022-09-14T11:06:24.791Z,99176.53
2022-09-14T11:09:26.983Z,99156.69
2022-09-14T11:12:26.943Z,99134.88
2022-09-14T11:15:46.145Z,99162.66
2022-09-14T11:19:11.102Z,99177.75
2022-09-14T11:22:08.538Z,99152.34
2022-09-14T11:25:12.384Z,99173.38
2022-09-14T11:28:01.013Z,99176.16
2022-09-14T11:31:00.790Z,99151.94
2022-09-14T11:34:12.843Z,99161.44
2022-09-14T11:37:04.889Z,99166.19
2022-09-14T11:40:10.584Z,99139.59
2022-09-14T11:43:01.007Z,99167.03
2022-09-14T11:45:50.131Z,99160.28
2022-09-14T11:48:57.414Z,99163.06
2022-09-14T11:51:53.614Z,99160.69
2022-09-14T11:54:44.614Z,99127.72
2022-09-14T11:57:33.774Z,99157.09
2022-09-14T12:00:30.508Z,99151.13
2022-09-14T12:03:24.551Z,99132.47
2022-09-14T12:06:28.651Z,99142.00
2022-09-14T12:09:17.520Z,99121.38
2022-09-14T12:12:07.528Z,99125.34
2022-09-14T12:14:59.486Z,99136.06
2022-09-14T12:17:45.872Z,99131.69
2022-09-14T12:20:41.901Z,99138.44
2022-09-14T12:23:51.814Z,99138.03
2022-09-14T12:26:37.632Z,99138.84
2022-09-14T12:29:33.083Z,99145.19
2022-09-14T12:32:45.299Z,99145.97
2022-09-14T12:35:34.280Z,99150.75
2022-09-14T12:38:33.516Z,99144.78
2022-09-14T12:41:20.635Z,99159.47
2022-09-14T12:44:30.455Z,99159.06
2022-09-14T12:47:25.597Z,99161.03
2022-09-14T12:50:22.308Z,99131.25
2022-09-14T12:53:25.747Z,99140.00
2022-09-14T12:56:18.334Z,99136.03
2022-09-14T12:59:46.662Z,99136.44
2022-09-14T13:03:11.174Z,99138.81
2022-09-14T13:06:03.312Z,99110.59
2022-09-14T13:08:58.739Z,99147.53
2022-09-14T13:11:46.872Z,99143.97
2022-09-14T13:14:48.370Z,99131.28
2022-09-14T13:17:33.896Z,99120.91
2022-09-14T13:20:21.567Z,99116.53
2022-09-14T13:23:21.405Z,99120.50
2022-09-14T13:26:12.341Z,99115.75
2022-09-14T13:29:00.266Z,99111.78
2022-09-14T13:31:45.996Z,99081.59
2022-09-14T13:34:45.616Z,99106.69
2022-09-14T13:37:47.579Z,99120.97
2022-09-14T13:40:46.662Z,99111.03
2022-09-14T13:43:32.927Z,99097.09
2022-09-14T13:46:46.074Z,99091.22
2022-09-14T13:49:32.625Z,99073.69
2022-09-14T13:52:21.888Z,99067.75
2022-09-14T13:55:41.200Z,99104.28
2022-09-14T13:58:27.577Z,99088.00
2022-09-14T14:01:26.254Z,99087.63
2022-09-14T14:04:36.062Z,99080.09
2022-09-14T14:07:23.552Z,99078.50
2022-09-14T14:10:28.656Z,99039.59
2022-09-14T14:13:27.755Z,99081.28
2022-09-14T14:16:17.450Z,99077.31
2022-09-14T14:19:03.396Z,99072.91
2022-09-14T14:21:56.981Z,99050.69
2022-09-14T14:28:06.598Z,99049.88
2022-09-14T14:30:53.388Z,99020.50
2022-09-14T14:33:46.220Z,99067.34
2022-09-14T14:36:32.503Z,99045.09
2022-09-14T14:39:23.599Z,99023.28
2022-09-14T14:42:10.739Z,99061.78
2022-09-14T14:44:57.428Z,99012.59
2022-09-14T14:47:47.183Z,99028.47
2022-09-14T14:50:36.035Z,99031.25
2022-09-14T14:53:24.382Z,99020.53
2022-09-14T14:56:23.318Z,99046.31
2022-09-14T14:59:21.403Z,99054.25
2022-09-14T15:02:09.386Z,99007.03
2022-09-14T15:04:59.487Z,99049.88
2022-09-14T15:07:57.231Z,99028.84
2022-09-14T15:10:43.021Z,99016.97
2022-09-14T15:13:29.340Z,99020.53
2022-09-14T15:16:16.010Z,99029.66
2022-09-14T15:19:02.193Z,99013.00
2022-09-14T15:21:47.964Z,99001.84
2022-09-14T15:24:34.130Z,99044.31
2022-09-14T15:27:19.974Z,99011.38
2022-09-14T15:30:07.032Z,99009.38
2022-09-14T15:33:17.319Z,99045.09
2022-09-14T15:36:09.282Z,99033.22
2022-09-14T15:38:56.406Z,98986.41
2022-09-14T15:41:42.598Z,99023.28
2022-09-14T15:44:31.407Z,99013.78
2022-09-14T15:47:20.360Z,99003.44
2022-09-14T15:50:06.507Z,99016.53
2022-09-14T15:52:52.622Z,99020.09
2022-09-14T15:55:40.817Z,99002.22
2022-09-14T15:58:27.320Z,98985.59
2022-09-14T16:01:14.680Z,98980.00
2022-09-14T16:04:11.524Z,99030.81
2022-09-14T16:10:23.173Z,99023.66
2022-09-14T16:13:09.378Z,99010.16
2022-09-14T16:16:04.335Z,99024.84
2022-09-14T16:18:51.457Z,99010.56
2022-09-14T16:21:38.406Z,99026.81
2022-09-14T16:24:26.381Z,99029.19
2022-09-14T16:27:12.846Z,99002.19
2022-09-14T16:30:04.459Z,99017.28
2022-09-14T16:33:17.074Z,99019.25
2022-09-14T16:36:05.024Z,98980.31
2022-09-14T16:38:50.802Z,98977.56
2022-09-14T16:41:56.724Z,99014.91
2022-09-14T16:44:42.552Z,99004.97
2022-09-14T16:47:28.531Z,98981.13
2022-09-14T16:50:15.409Z,98988.66
2022-09-14T16:53:01.316Z,98986.25
2022-09-14T16:55:47.516Z,98999.38
2022-09-14T16:58:35.933Z,99008.09
2022-09-14T17:01:26.101Z,99025.16
2022-09-14T17:04:14.983Z,99013.66
2022-09-14T17:07:00.753Z,99000.50
2022-09-14T17:09:46.505Z,98990.97
2022-09-14T17:12:32.874Z,98988.94
2022-09-14T17:15:18.780Z,98988.56
2022-09-14T17:18:05.721Z,99017.19
2022-09-14T17:21:01.276Z,99026.72
2022-09-14T17:23:48.111Z,99010.00
2022-09-14T17:26:34.632Z,99012.38
2022-09-14T17:29:20.755Z,99029.88
2022-09-14T17:32:10.159Z,99033.44
2022-09-14T17:34:58.658Z,99032.59
2022-09-14T17:37:45.042Z,99004.78
2022-09-14T17:40:31.194Z,99010.75
2022-09-14T17:43:20.960Z,99033.34
2022-09-14T17:46:07.899Z,98999.63
2022-09-14T17:48:54.325Z,99027.41
2022-09-14T17:51:40.605Z,99009.97
2022-09-14T17:54:26.863Z,99037.38
2022-09-14T17:57:12.490Z,99011.56
2022-09-14T17:59:58.178Z,98990.50
2022-09-14T18:02:44.272Z,99011.16
2022-09-14T18:05:30.560Z,99039.31
2022-09-14T18:08:16.486Z,98992.06
2022-09-14T18:11:12.067Z,99042.47
2022-09-14T18:13:58.171Z,99001.25
2022-09-14T18:16:45.203Z,98970.22
2022-09-14T18:19:30.887Z,99003.97
2022-09-14T18:22:17.894Z,99023.84
2022-09-14T18:25:05.084Z,99002.81
2022-09-14T18:27:52.114Z,98987.31
2022-09-14T18:30:42.940Z,98988.50
2022-09-14T18:33:29.690Z,99017.50
2022-09-14T18:36:16.320Z,99013.09
2022-09-14T18:39:02.436Z,99018.72
2022-09-14T18:41:53.839Z,98963.13
2022-09-14T18:44:40.023Z,98971.03
2022-09-14T18:47:25.925Z,98992.94
2022-09-14T18:50:12.070Z,98984.59
2022-09-14T18:52:58.520Z,98958.78
2022-09-14T18:55:44.304Z,98984.59
2022-09-14T18:58:34.270Z,98988.94
2022-09-14T19:01:21.119Z,99000.84
2022-09-14T19:04:09.785Z,98957.97
2022-09-14T19:06:55.797Z,98986.94
2022-09-14T19:09:42.028Z,98944.06
2022-09-14T19:12:28.588Z,98971.06
2022-09-14T19:15:14.055Z,98986.94
2022-09-14T19:18:00.557Z,98981.41
2022-09-14T19:21:06.028Z,98988.53
2022-09-14T19:24:01.780Z,98990.50
2022-09-14T19:26:49.763Z,98969.50
2022-09-14T19:29:36.217Z,98951.56
2022-09-14T19:32:22.212Z,98987.72
2022-09-14T19:35:08.978Z,98965.13
2022-09-14T19:37:54.984Z,98973.44
2022-09-14T19:40:50.726Z,98988.09
2022-09-14T19:43:38.783Z,98986.16
2022-09-14T19:46:26.037Z,98968.66
2022-09-14T19:49:15.518Z,98956.72
2022-09-14T19:52:01.806Z,98953.94
2022-09-14T19:54:47.860Z,98958.75
2022-09-14T19:57:36.688Z,98974.66
2022-09-14T20:00:22.691Z,98981.34
2022-09-14T20:03:08.561Z,98949.59
2022-09-14T20:06:01.431Z,98954.78
2022-09-14T20:08:48.731Z,98945.66
2022-09-14T20:11:35.910Z,98948.00
2022-09-14T20:14:24.540Z,98971.03
2022-09-14T20:17:10.551Z,98962.31
2022-09-14T20:19:56.556Z,98945.22
2022-09-14T20:22:42.236Z,98951.97
2022-09-14T20:25:28.152Z,98952.34
2022-09-14T20:28:16.080Z,98968.66
2022-09-14T20:31:15.071Z,98981.75
2022-09-14T20:34:02.046Z,98964.25
2022-09-14T20:36:49.293Z,98972.22
2022-09-14T20:39:38.694Z,98965.88
2022-09-14T20:42:26.092Z,98967.09
2022-09-14T20:45:11.924Z,98969.50
2022-09-14T20:47:58.304Z,98933.72
2022-09-14T20:50:51.978Z,98957.56
2022-09-14T20:53:43.446Z,98927.00
2022-09-14T20:56:35.377Z,98950.00
2022-09-14T20:59:22.819Z,98920.59
2022-09-14T21:02:09.565Z,98960.69
2022-09-14T21:04:55.774Z,98957.16
2022-09-14T21:07:41.664Z,98921.84
2022-09-14T21:10:29.487Z,98938.50
2022-09-14T21:13:15.470Z,98916.25
2022-09-14T21:16:15.399Z,98965.50
2022-09-14T21:19:03.904Z,98955.97
2022-09-14T21:21:50.801Z,98939.28
2022-09-14T21:24:36.603Z,98920.25
2022-09-14T21:27:22.373Z,98942.47
2022-09-14T21:30:08.655Z,98960.34
2022-09-14T21:32:55.131Z,98936.91
2022-09-14T21:35:41.041Z,98946.38
2022-09-14T21:38:27.123Z,98935.34
2022-09-14T21:41:12.524Z,98924.63
2022-09-14T21:43:58.977Z,98898.09
2022-09-14T21:46:44.640Z,98929.44
2022-09-14T21:49:31.307Z,98925.84
2022-09-14T21:52:16.935Z,98916.31
2022-09-14T21:55:02.643Z,98924.25
2022-09-14T21:57:50.409Z,98923.06
2022-09-14T22:00:36.272Z,98911.97
2022-09-14T22:03:22.084Z,98898.47
2022-09-14T22:06:12.681Z,98910.03
2022-09-14T22:09:01.971Z,98927.47
2022-09-14T22:11:47.894Z,98879.81
2022-09-14T22:14:34.093Z,98903.63
2022-09-14T22:17:20.191Z,98916.72
2022-09-14T22:20:06.338Z,98903.63
2022-09-14T22:22:52.188Z,98888.56
2022-09-14T22:25:41.388Z,98883.81
2022-09-14T22:28:27.138Z,98902.03
2022-09-14T22:31:12.651Z,98903.63
2022-09-14T22:33:59.629Z,98930.22
2022-09-14T22:36:54.481Z,98923.06
2022-09-14T22:39:53.916Z,98918.69
2022-09-14T22:42:39.756Z,98889.34
2022-09-14T22:45:25.806Z,98915.50
2022-09-14T22:48:11.580Z,98925.81
2022-09-14T22:50:58.301Z,98910.72
2022-09-14T22:53:44.930Z,98903.22
2022-09-14T22:56:37.122Z,98910.78
2022-09-14T22:59:22.477Z,98909.19
2022-09-14T23:02:09.062Z,98909.56
2022-09-14T23:04:56.189Z,98899.25
2022-09-14T23:07:42.186Z,98899.66
2022-09-14T23:10:28.189Z,98915.50
2022-09-14T23:13:15.533Z,98909.19
2022-09-14T23:16:01.991Z,98900.44
2022-09-14T23:18:53.224Z,98898.91
2022-09-14T23:21:39.127Z,98885.03
2022-09-14T23:24:24.854Z,98873.50
2022-09-14T23:27:10.257Z,98852.03
2022-09-14T23:29:56.216Z,98896.53
2022-09-14T23:32:41.878Z,98865.97
2022-09-14T23:35:28.564Z,98906.03
2022-09-14T23:38:14.426Z,98884.63
2022-09-14T23:41:00.446Z,98875.88
2022-09-14T23:43:46.432Z,98860.84
2022-09-14T23:46:32.777Z,98868.75
2022-09-14T23:49:18.573Z,98844.97
2022-09-14T23:52:04.247Z,98876.31
2022-09-14T23:54:50.675Z,98824.72
2022-09-14T23:57:36.767Z,98864.44
